sensor_id;sensor_type;location;lat;lon;timestamp;temperature;humidity
2212;DHT22;48849;48.758;9.158;2022-10-03T00:03:36;15.10;99.90
2212;DHT22;48849;48.758;9.158;2022-10-03T00:06:13;15.10;99.90
2212;DHT22;48849;48.758;9.158;2022-10-03T00:11:58;15.10;99.90
2212;DHT22;48849;48.758;9.158;2022-10-03T00:14:40;15.10;99.90
2212;DHT22;48849;48.758;9.158;2022-10-03T00:17:13;15.10;99.90
2212;DHT22;48849;48.758;9.158;2022-10-03T00:19:50;15.20;99.90
2212;DHT22;48849;48.758;9.158;2022-10-03T00:22:28;15.00;99.90
2212;DHT22;48849;48.758;9.158;2022-10-03T00:25:13;15.00;99.90
2212;DHT22;48849;48.758;9.158;2022-10-03T00:27:47;15.00;99.90
2212;DHT22;48849;48.758;9.158;2022-10-03T00:30:20;15.00;99.90
2212;DHT22;48849;48.758;9.158;2022-10-03T00:33:06;15.10;99.90
2212;DHT22;48849;48.758;9.158;2022-10-03T00:35:48;15.10;99.90
2212;DHT22;48849;48.758;9.158;2022-10-03T00:44:32;15.00;99.90
2212;DHT22;48849;48.758;9.158;2022-10-03T00:47:24;14.90;99.90
2212;DHT22;48849;48.758;9.158;2022-10-03T00:53:16;15.00;99.90
2212;DHT22;48849;48.758;9.158;2022-10-03T00:55:57;14.90;99.90
2212;DHT22;48849;48.758;9.158;2022-10-03T00:58:49;15.20;99.90
2212;DHT22;48849;48.758;9.158;2022-10-03T01:01:23;14.90;99.90
2212;DHT22;48849;48.758;9.158;2022-10-03T01:04:20;14.90;99.90
2212;DHT22;48849;48.758;9.158;2022-10-03T01:07:00;14.90;99.90
2212;DHT22;48849;48.758;9.158;2022-10-03T01:09:37;14.90;99.90
2212;DHT22;48849;48.758;9.158;2022-10-03T01:12:20;14.90;99.90
2212;DHT22;48849;48.758;9.158;2022-10-03T01:15:09;14.90;99.90
2212;DHT22;48849;48.758;9.158;2022-10-03T01:17:49;14.90;99.90
2212;DHT22;48849;48.758;9.158;2022-10-03T01:20:26;14.90;99.90
2212;DHT22;48849;48.758;9.158;2022-10-03T01:23:23;14.90;99.90
2212;DHT22;48849;48.758;9.158;2022-10-03T01:26:04;14.90;99.90
2212;DHT22;48849;48.758;9.158;2022-10-03T01:28:42;14.90;99.90
2212;DHT22;48849;48.758;9.158;2022-10-03T01:31:36;14.90;99.90
2212;DHT22;48849;48.758;9.158;2022-10-03T01:34:09;14.90;99.90
2212;DHT22;48849;48.758;9.158;2022-10-03T01:36:42;14.80;99.90
2212;DHT22;48849;48.758;9.158;2022-10-03T01:39:20;15.20;99.90
2212;DHT22;48849;48.758;9.158;2022-10-03T01:41:56;14.80;99.90
2212;DHT22;48849;48.758;9.158;2022-10-03T01:44:35;14.70;99.90
2212;DHT22;48849;48.758;9.158;2022-10-03T01:47:17;14.80;99.90
2212;DHT22;48849;48.758;9.158;2022-10-03T01:49:50;14.80;99.90
2212;DHT22;48849;48.758;9.158;2022-10-03T01:52:25;14.80;99.90
2212;DHT22;48849;48.758;9.158;2022-10-03T01:55:00;14.90;99.90
2212;DHT22;48849;48.758;9.158;2022-10-03T01:57:33;15.20;99.90
2212;DHT22;48849;48.758;9.158;2022-10-03T02:00:10;14.70;99.90
2212;DHT22;48849;48.758;9.158;2022-10-03T02:02:43;14.70;99.90
2212;DHT22;48849;48.758;9.158;2022-10-03T02:05:14;14.70;99.90
2212;DHT22;48849;48.758;9.158;2022-10-03T02:07:49;14.70;99.90
2212;DHT22;48849;48.758;9.158;2022-10-03T02:10:28;14.70;99.90
2212;DHT22;48849;48.758;9.158;2022-10-03T02:13:04;14.80;99.90
2212;DHT22;48849;48.758;9.158;2022-10-03T02:15:43;14.50;99.90
2212;DHT22;48849;48.758;9.158;2022-10-03T02:18:17;14.80;99.90
2212;DHT22;48849;48.758;9.158;2022-10-03T02:20:48;14.80;99.90
2212;DHT22;48849;48.758;9.158;2022-10-03T02:23:37;14.80;99.90
2212;DHT22;48849;48.758;9.158;2022-10-03T02:29:25;15.40;99.90
2212;DHT22;48849;48.758;9.158;2022-10-03T02:32:29;14.80;99.90
2212;DHT22;48849;48.758;9.158;2022-10-03T02:35:19;14.80;99.90
2212;DHT22;48849;48.758;9.158;2022-10-03T02:38:04;14.70;99.90
2212;DHT22;48849;48.758;9.158;2022-10-03T02:44:06;14.70;99.90
2212;DHT22;48849;48.758;9.158;2022-10-03T02:53:57;14.80;99.90
2212;DHT22;48849;48.758;9.158;2022-10-03T02:56:55;14.80;99.90
2212;DHT22;48849;48.758;9.158;2022-10-03T03:00:03;14.80;99.90
2212;DHT22;48849;48.758;9.158;2022-10-03T03:03:02;14.80;99.90
2212;DHT22;48849;48.758;9.158;2022-10-03T03:12:00;14.70;99.90
2212;DHT22;48849;48.758;9.158;2022-10-03T03:15:00;14.70;99.90
2212;DHT22;48849;48.758;9.158;2022-10-03T03:17:41;14.70;99.90
2212;DHT22;48849;48.758;9.158;2022-10-03T03:20:40;14.70;99.90
2212;DHT22;48849;48.758;9.158;2022-10-03T03:23:32;14.70;99.90
2212;DHT22;48849;48.758;9.158;2022-10-03T03:26:20;14.70;99.90
2212;DHT22;48849;48.758;9.158;2022-10-03T03:29:00;14.70;99.90
2212;DHT22;48849;48.758;9.158;2022-10-03T03:31:45;15.50;99.90
2212;DHT22;48849;48.758;9.158;2022-10-03T03:34:21;14.60;99.90
2212;DHT22;48849;48.758;9.158;2022-10-03T03:36:58;14.60;99.90
2212;DHT22;48849;48.758;9.158;2022-10-03T03:39:41;14.60;99.90
2212;DHT22;48849;48.758;9.158;2022-10-03T03:42:47;14.50;99.90
2212;DHT22;48849;48.758;9.158;2022-10-03T03:45:42;14.50;99.90
2212;DHT22;48849;48.758;9.158;2022-10-03T03:48:23;14.50;99.90
2212;DHT22;48849;48.758;9.158;2022-10-03T03:51:08;14.60;99.90
2212;DHT22;48849;48.758;9.158;2022-10-03T03:53:57;14.50;99.90
2212;DHT22;48849;48.758;9.158;2022-10-03T03:56:50;14.40;99.90
2212;DHT22;48849;48.758;9.158;2022-10-03T03:59:37;14.40;99.90
2212;DHT22;48849;48.758;9.158;2022-10-03T04:02:24;14.50;99.90
2212;DHT22;48849;48.758;9.158;2022-10-03T04:05:04;14.40;99.90
2212;DHT22;48849;48.758;9.158;2022-10-03T04:07:44;14.40;99.90
2212;DHT22;48849;48.758;9.158;2022-10-03T04:10:30;14.40;99.90
2212;DHT22;48849;48.758;9.158;2022-10-03T04:13:12;14.40;99.90
2212;DHT22;48849;48.758;9.158;2022-10-03T04:16:04;14.40;99.90
2212;DHT22;48849;48.758;9.158;2022-10-03T04:18:53;14.40;99.90
2212;DHT22;48849;48.758;9.158;2022-10-03T04:21:47;14.40;99.90
2212;DHT22;48849;48.758;9.158;2022-10-03T04:24:29;14.40;99.90
2212;DHT22;48849;48.758;9.158;2022-10-03T04:27:15;14.40;99.90
2212;DHT22;48849;48.758;9.158;2022-10-03T04:29:51;14.30;99.90
2212;DHT22;48849;48.758;9.158;2022-10-03T04:32:31;14.30;99.90
2212;DHT22;48849;48.758;9.158;2022-10-03T04:35:14;14.30;99.90
2212;DHT22;48849;48.758;9.158;2022-10-03T04:37:46;14.30;99.90
2212;DHT22;48849;48.758;9.158;2022-10-03T04:40:24;14.30;99.90
2212;DHT22;48849;48.758;9.158;2022-10-03T04:43:03;14.30;99.90
2212;DHT22;48849;48.758;9.158;2022-10-03T04:45:45;14.30;99.90
2212;DHT22;48849;48.758;9.158;2022-10-03T04:48:17;14.20;99.90
2212;DHT22;48849;48.758;9.158;2022-10-03T04:51:02;14.30;99.90
2212;DHT22;48849;48.758;9.158;2022-10-03T04:53:48;14.30;99.90
2212;DHT22;48849;48.758;9.158;2022-10-03T04:56:33;14.30;99.90
2212;DHT22;48849;48.758;9.158;2022-10-03T04:59:21;14.20;99.90
2212;DHT22;48849;48.758;9.158;2022-10-03T05:01:54;14.20;99.90
2212;DHT22;48849;48.758;9.158;2022-10-03T05:04:31;14.20;99.90
2212;DHT22;48849;48.758;9.158;2022-10-03T05:07:10;14.30;99.90
2212;DHT22;48849;48.758;9.158;2022-10-03T05:09:47;14.20;99.90
2212;DHT22;48849;48.758;9.158;2022-10-03T05:12:18;15.00;99.90
2212;DHT22;48849;48.758;9.158;2022-10-03T05:15:04;14.30;99.90
2212;DHT22;48849;48.758;9.158;2022-10-03T05:17:44;14.20;99.90
2212;DHT22;48849;48.758;9.158;2022-10-03T05:20:28;14.20;99.90
2212;DHT22;48849;48.758;9.158;2022-10-03T05:23:09;14.30;99.90
2212;DHT22;48849;48.758;9.158;2022-10-03T05:25:45;14.80;99.90
2212;DHT22;48849;48.758;9.158;2022-10-03T05:28:24;14.30;99.90
2212;DHT22;48849;48.758;9.158;2022-10-03T05:31:05;14.50;99.90
2212;DHT22;48849;48.758;9.158;2022-10-03T05:33:44;14.20;99.90
2212;DHT22;48849;48.758;9.158;2022-10-03T05:36:19;14.30;99.90
2212;DHT22;48849;48.758;9.158;2022-10-03T05:42:13;14.30;99.90
2212;DHT22;48849;48.758;9.158;2022-10-03T05:44:53;14.30;99.90
2212;DHT22;48849;48.758;9.158;2022-10-03T05:47:28;14.30;99.90
2212;DHT22;48849;48.758;9.158;2022-10-03T05:50:32;14.30;99.90
2212;DHT22;48849;48.758;9.158;2022-10-03T05:56:06;14.30;99.90
2212;DHT22;48849;48.758;9.158;2022-10-03T05:58:49;14.40;99.90
2212;DHT22;48849;48.758;9.158;2022-10-03T06:01:42;14.40;99.90
2212;DHT22;48849;48.758;9.158;2022-10-03T06:04:49;14.40;99.90
2212;DHT22;48849;48.758;9.158;2022-10-03T06:07:26;14.40;99.90
2212;DHT22;48849;48.758;9.158;2022-10-03T06:10:17;14.40;99.90
2212;DHT22;48849;48.758;9.158;2022-10-03T06:13:01;14.40;99.90
2212;DHT22;48849;48.758;9.158;2022-10-03T06:15:43;14.40;99.90
2212;DHT22;48849;48.758;9.158;2022-10-03T06:18:35;14.40;99.90
2212;DHT22;48849;48.758;9.158;2022-10-03T06:21:29;14.40;99.90
2212;DHT22;48849;48.758;9.158;2022-10-03T06:24:13;14.40;99.90
2212;DHT22;48849;48.758;9.158;2022-10-03T06:27:03;14.50;99.90
2212;DHT22;48849;48.758;9.158;2022-10-03T06:30:17;14.50;99.90
2212;DHT22;48849;48.758;9.158;2022-10-03T06:36:18;14.50;99.90
2212;DHT22;48849;48.758;9.158;2022-10-03T06:48:12;14.60;99.90
2212;DHT22;48849;48.758;9.158;2022-10-03T06:50:52;14.60;99.90
2212;DHT22;48849;48.758;9.158;2022-10-03T07:00:02;14.60;99.90
2212;DHT22;48849;48.758;9.158;2022-10-03T07:02:50;14.60;99.90
2212;DHT22;48849;48.758;9.158;2022-10-03T07:05:53;14.60;99.90
2212;DHT22;48849;48.758;9.158;2022-10-03T07:15:40;14.60;99.90
2212;DHT22;48849;48.758;9.158;2022-10-03T07:21:57;14.60;99.90
2212;DHT22;48849;48.758;9.158;2022-10-03T07:27:58;14.70;99.90
2212;DHT22;48849;48.758;9.158;2022-10-03T07:30:35;14.70;99.90
2212;DHT22;48849;48.758;9.158;2022-10-03T07:36:58;14.70;99.90
2212;DHT22;48849;48.758;9.158;2022-10-03T07:40:04;14.70;99.90
2212;DHT22;48849;48.758;9.158;2022-10-03T07:43:23;14.70;99.90
2212;DHT22;48849;48.758;9.158;2022-10-03T07:46:13;14.70;99.90
2212;DHT22;48849;48.758;9.158;2022-10-03T07:49:09;14.70;99.90
2212;DHT22;48849;48.758;9.158;2022-10-03T07:51:55;14.70;99.90
2212;DHT22;48849;48.758;9.158;2022-10-03T07:54:42;14.70;99.90
2212;DHT22;48849;48.758;9.158;2022-10-03T07:57:37;14.70;99.90
2212;DHT22;48849;48.758;9.158;2022-10-03T08:00:19;14.70;99.90
2212;DHT22;48849;48.758;9.158;2022-10-03T08:03:19;14.70;99.90
2212;DHT22;48849;48.758;9.158;2022-10-03T08:06:07;14.70;99.90
2212;DHT22;48849;48.758;9.158;2022-10-03T08:09:04;14.70;99.90
2212;DHT22;48849;48.758;9.158;2022-10-03T08:14:54;14.80;99.90
2212;DHT22;48849;48.758;9.158;2022-10-03T08:17:40;14.80;99.90
2212;DHT22;48849;48.758;9.158;2022-10-03T08:20:30;14.80;99.90
2212;DHT22;48849;48.758;9.158;2022-10-03T08:23:13;14.80;99.90
2212;DHT22;48849;48.758;9.158;2022-10-03T08:25:57;14.90;99.90
2212;DHT22;48849;48.758;9.158;2022-10-03T08:28:48;14.90;99.90
2212;DHT22;48849;48.758;9.158;2022-10-03T08:34:42;14.80;99.90
2212;DHT22;48849;48.758;9.158;2022-10-03T08:44:05;14.80;99.90
2212;DHT22;48849;48.758;9.158;2022-10-03T08:50:25;14.90;99.90
2212;DHT22;48849;48.758;9.158;2022-10-03T08:55:57;14.90;99.90
2212;DHT22;48849;48.758;9.158;2022-10-03T08:58:37;14.90;99.90
2212;DHT22;48849;48.758;9.158;2022-10-03T09:04:38;14.90;99.90
2212;DHT22;48849;48.758;9.158;2022-10-03T09:10:26;15.00;99.90
2212;DHT22;48849;48.758;9.158;2022-10-03T09:16:21;15.00;99.90
2212;DHT22;48849;48.758;9.158;2022-10-03T09:19:02;15.10;99.90
2212;DHT22;48849;48.758;9.158;2022-10-03T09:21:54;15.10;99.90
2212;DHT22;48849;48.758;9.158;2022-10-03T09:24:52;15.10;99.90
2212;DHT22;48849;48.758;9.158;2022-10-03T09:27:36;15.20;99.90
2212;DHT22;48849;48.758;9.158;2022-10-03T09:30:15;15.10;99.90
2212;DHT22;48849;48.758;9.158;2022-10-03T09:36:17;15.20;99.90
2212;DHT22;48849;48.758;9.158;2022-10-03T09:45:38;15.20;99.90
2212;DHT22;48849;48.758;9.158;2022-10-03T09:48:33;15.20;99.90
2212;DHT22;48849;48.758;9.158;2022-10-03T09:51:15;15.20;99.90
2212;DHT22;48849;48.758;9.158;2022-10-03T10:00:07;15.30;99.90
2212;DHT22;48849;48.758;9.158;2022-10-03T10:03:02;15.30;99.90
2212;DHT22;48849;48.758;9.158;2022-10-03T10:06:09;15.30;99.90
2212;DHT22;48849;48.758;9.158;2022-10-03T10:15:16;15.30;99.90
2212;DHT22;48849;48.758;9.158;2022-10-03T10:18:00;15.30;99.90
2212;DHT22;48849;48.758;9.158;2022-10-03T10:24:03;15.30;99.90
2212;DHT22;48849;48.758;9.158;2022-10-03T10:30:10;15.30;99.90
2212;DHT22;48849;48.758;9.158;2022-10-03T10:39:24;15.30;99.90
2212;DHT22;48849;48.758;9.158;2022-10-03T10:45:38;15.30;99.90
2212;DHT22;48849;48.758;9.158;2022-10-03T10:54:59;15.30;99.90
2212;DHT22;48849;48.758;9.158;2022-10-03T11:01:10;15.30;99.90
2212;DHT22;48849;48.758;9.158;2022-10-03T11:04:20;15.30;99.90
2212;DHT22;48849;48.758;9.158;2022-10-03T11:07:18;15.30;99.90
2212;DHT22;48849;48.758;9.158;2022-10-03T11:13:18;15.30;99.90
2212;DHT22;48849;48.758;9.158;2022-10-03T11:16:40;15.30;99.90
2212;DHT22;48849;48.758;9.158;2022-10-03T11:23:09;15.40;99.90
2212;DHT22;48849;48.758;9.158;2022-10-03T11:29:09;15.80;99.90
2212;DHT22;48849;48.758;9.158;2022-10-03T11:32:14;16.10;99.90
2212;DHT22;48849;48.758;9.158;2022-10-03T11:38:02;16.70;99.90
2212;DHT22;48849;48.758;9.158;2022-10-03T11:40:40;16.80;99.90
2212;DHT22;48849;48.758;9.158;2022-10-03T11:43:53;16.80;99.90
2212;DHT22;48849;48.758;9.158;2022-10-03T11:46:50;16.80;99.90
2212;DHT22;48849;48.758;9.158;2022-10-03T11:49:42;17.00;99.90
2212;DHT22;48849;48.758;9.158;2022-10-03T11:52:25;16.90;99.90
2212;DHT22;48849;48.758;9.158;2022-10-03T11:55:04;17.00;99.90
2212;DHT22;48849;48.758;9.158;2022-10-03T11:57:35;17.20;99.90
2212;DHT22;48849;48.758;9.158;2022-10-03T12:00:12;17.60;99.90
2212;DHT22;48849;48.758;9.158;2022-10-03T12:03:12;17.70;99.90
2212;DHT22;48849;48.758;9.158;2022-10-03T12:05:49;17.50;99.90
2212;DHT22;48849;48.758;9.158;2022-10-03T12:08:40;17.50;99.90
2212;DHT22;48849;48.758;9.158;2022-10-03T12:11:24;17.60;99.90
2212;DHT22;48849;48.758;9.158;2022-10-03T12:14:11;17.60;99.90
2212;DHT22;48849;48.758;9.158;2022-10-03T12:16:53;17.50;99.90
2212;DHT22;48849;48.758;9.158;2022-10-03T12:19:26;17.50;99.90
2212;DHT22;48849;48.758;9.158;2022-10-03T12:21:57;17.40;99.90
2212;DHT22;48849;48.758;9.158;2022-10-03T12:24:26;17.30;99.90
2212;DHT22;48849;48.758;9.158;2022-10-03T12:26:59;17.30;99.90
2212;DHT22;48849;48.758;9.158;2022-10-03T12:29:31;17.50;99.90
2212;DHT22;48849;48.758;9.158;2022-10-03T12:32:19;17.20;99.90
2212;DHT22;48849;48.758;9.158;2022-10-03T12:34:56;17.10;99.90
2212;DHT22;48849;48.758;9.158;2022-10-03T12:37:42;17.00;99.90
2212;DHT22;48849;48.758;9.158;2022-10-03T12:40:16;17.40;99.90
2212;DHT22;48849;48.758;9.158;2022-10-03T12:42:48;16.80;99.90
2212;DHT22;48849;48.758;9.158;2022-10-03T12:45:29;16.80;99.90
2212;DHT22;48849;48.758;9.158;2022-10-03T12:48:18;16.70;99.90
2212;DHT22;48849;48.758;9.158;2022-10-03T12:50:53;16.70;99.90
2212;DHT22;48849;48.758;9.158;2022-10-03T12:53:42;16.70;99.90
2212;DHT22;48849;48.758;9.158;2022-10-03T12:56:24;16.70;99.90
2212;DHT22;48849;48.758;9.158;2022-10-03T12:59:06;16.70;99.90
2212;DHT22;48849;48.758;9.158;2022-10-03T13:01:55;16.70;99.90
2212;DHT22;48849;48.758;9.158;2022-10-03T13:04:36;16.70;99.90
2212;DHT22;48849;48.758;9.158;2022-10-03T13:07:14;17.20;99.90
2212;DHT22;48849;48.758;9.158;2022-10-03T13:10:01;16.70;99.90
2212;DHT22;48849;48.758;9.158;2022-10-03T13:12:40;16.70;99.90
2212;DHT22;48849;48.758;9.158;2022-10-03T13:15:41;16.70;99.90
2212;DHT22;48849;48.758;9.158;2022-10-03T13:18:22;16.70;99.90
2212;DHT22;48849;48.758;9.158;2022-10-03T13:20:59;16.70;99.90
2212;DHT22;48849;48.758;9.158;2022-10-03T13:23:35;16.60;99.90
2212;DHT22;48849;48.758;9.158;2022-10-03T13:26:11;16.60;99.90
2212;DHT22;48849;48.758;9.158;2022-10-03T13:31:47;16.50;99.90
2212;DHT22;48849;48.758;9.158;2022-10-03T13:34:23;17.10;99.90
2212;DHT22;48849;48.758;9.158;2022-10-03T13:36:56;16.50;99.90
2212;DHT22;48849;48.758;9.158;2022-10-03T13:39:26;16.50;99.90
2212;DHT22;48849;48.758;9.158;2022-10-03T13:42:08;16.50;99.90
2212;DHT22;48849;48.758;9.158;2022-10-03T13:44:40;16.50;99.90
2212;DHT22;48849;48.758;9.158;2022-10-03T13:47:25;16.50;99.90
2212;DHT22;48849;48.758;9.158;2022-10-03T13:49:56;16.50;99.90
2212;DHT22;48849;48.758;9.158;2022-10-03T13:52:34;16.80;99.90
2212;DHT22;48849;48.758;9.158;2022-10-03T13:55:15;16.50;99.90
2212;DHT22;48849;48.758;9.158;2022-10-03T13:57:50;16.40;99.90
2212;DHT22;48849;48.758;9.158;2022-10-03T14:00:21;16.60;99.90
2212;DHT22;48849;48.758;9.158;2022-10-03T14:03:15;16.30;99.90
2212;DHT22;48849;48.758;9.158;2022-10-03T14:05:53;16.40;99.90
2212;DHT22;48849;48.758;9.158;2022-10-03T14:08:57;16.40;99.90
2212;DHT22;48849;48.758;9.158;2022-10-03T14:11:32;16.40;99.90
2212;DHT22;48849;48.758;9.158;2022-10-03T14:14:33;16.40;99.90
2212;DHT22;48849;48.758;9.158;2022-10-03T14:17:09;16.40;99.90
2212;DHT22;48849;48.758;9.158;2022-10-03T14:19:43;16.40;99.90
2212;DHT22;48849;48.758;9.158;2022-10-03T14:22:22;16.30;99.90
2212;DHT22;48849;48.758;9.158;2022-10-03T14:25:01;16.40;99.90
2212;DHT22;48849;48.758;9.158;2022-10-03T14:27:51;16.40;99.90
2212;DHT22;48849;48.758;9.158;2022-10-03T14:30:20;16.40;99.90
2212;DHT22;48849;48.758;9.158;2022-10-03T14:33:12;16.40;99.90
2212;DHT22;48849;48.758;9.158;2022-10-03T14:35:49;16.30;99.90
2212;DHT22;48849;48.758;9.158;2022-10-03T14:38:37;16.30;99.90
2212;DHT22;48849;48.758;9.158;2022-10-03T14:41:44;16.30;99.90
2212;DHT22;48849;48.758;9.158;2022-10-03T14:44:16;16.30;99.90
2212;DHT22;48849;48.758;9.158;2022-10-03T14:46:49;16.30;99.90
2212;DHT22;48849;48.758;9.158;2022-10-03T14:49:20;16.30;99.90
2212;DHT22;48849;48.758;9.158;2022-10-03T14:51:53;16.30;99.90
2212;DHT22;48849;48.758;9.158;2022-10-03T14:54:24;16.30;99.90
2212;DHT22;48849;48.758;9.158;2022-10-03T14:56:53;16.30;99.90
2212;DHT22;48849;48.758;9.158;2022-10-03T14:59:24;16.30;99.90
2212;DHT22;48849;48.758;9.158;2022-10-03T15:01:53;16.30;99.90
2212;DHT22;48849;48.758;9.158;2022-10-03T15:04:26;16.30;99.90
2212;DHT22;48849;48.758;9.158;2022-10-03T15:06:55;16.30;99.90
2212;DHT22;48849;48.758;9.158;2022-10-03T15:09:41;16.30;99.90
2212;DHT22;48849;48.758;9.158;2022-10-03T15:12:15;16.30;99.90
2212;DHT22;48849;48.758;9.158;2022-10-03T15:14:45;16.30;99.90
2212;DHT22;48849;48.758;9.158;2022-10-03T15:17:19;16.30;99.90
2212;DHT22;48849;48.758;9.158;2022-10-03T15:19:51;16.30;99.90
2212;DHT22;48849;48.758;9.158;2022-10-03T15:22:51;16.30;99.90
2212;DHT22;48849;48.758;9.158;2022-10-03T15:25:22;16.20;99.90
2212;DHT22;48849;48.758;9.158;2022-10-03T15:27:55;16.20;99.90
2212;DHT22;48849;48.758;9.158;2022-10-03T15:30:24;16.50;99.90
2212;DHT22;48849;48.758;9.158;2022-10-03T15:32:53;16.20;99.90
2212;DHT22;48849;48.758;9.158;2022-10-03T15:35:26;16.80;99.90
2212;DHT22;48849;48.758;9.158;2022-10-03T15:37:54;16.20;99.90
2212;DHT22;48849;48.758;9.158;2022-10-03T15:40:30;16.20;99.90
2212;DHT22;48849;48.758;9.158;2022-10-03T15:43:05;16.50;99.90
2212;DHT22;48849;48.758;9.158;2022-10-03T15:45:35;16.50;99.90
2212;DHT22;48849;48.758;9.158;2022-10-03T15:48:04;16.10;99.90
2212;DHT22;48849;48.758;9.158;2022-10-03T15:50:38;16.30;99.90
2212;DHT22;48849;48.758;9.158;2022-10-03T15:53:12;16.10;99.90
2212;DHT22;48849;48.758;9.158;2022-10-03T15:55:44;16.20;99.90
2212;DHT22;48849;48.758;9.158;2022-10-03T15:58:17;16.20;99.90
2212;DHT22;48849;48.758;9.158;2022-10-03T16:00:52;16.10;99.90
2212;DHT22;48849;48.758;9.158;2022-10-03T16:03:24;16.10;99.90
2212;DHT22;48849;48.758;9.158;2022-10-03T16:06:02;16.10;99.90
2212;DHT22;48849;48.758;9.158;2022-10-03T16:08:35;16.10;99.90
2212;DHT22;48849;48.758;9.158;2022-10-03T16:11:10;16.10;99.90
2212;DHT22;48849;48.758;9.158;2022-10-03T16:13:41;16.10;99.90
2212;DHT22;48849;48.758;9.158;2022-10-03T16:16:15;16.00;99.90
2212;DHT22;48849;48.758;9.158;2022-10-03T16:18:56;16.00;99.90
2212;DHT22;48849;48.758;9.158;2022-10-03T16:21:41;15.90;99.90
2212;DHT22;48849;48.758;9.158;2022-10-03T16:24:19;15.90;99.90
2212;DHT22;48849;48.758;9.158;2022-10-03T16:26:50;16.00;99.90
2212;DHT22;48849;48.758;9.158;2022-10-03T16:29:23;15.90;99.90
2212;DHT22;48849;48.758;9.158;2022-10-03T16:31:53;15.90;99.90
2212;DHT22;48849;48.758;9.158;2022-10-03T16:34:23;15.90;99.90
2212;DHT22;48849;48.758;9.158;2022-10-03T16:36:51;15.90;99.90
2212;DHT22;48849;48.758;9.158;2022-10-03T16:39:21;15.80;99.90
2212;DHT22;48849;48.758;9.158;2022-10-03T16:41:51;15.80;99.90
2212;DHT22;48849;48.758;9.158;2022-10-03T16:44:23;15.80;99.90
2212;DHT22;48849;48.758;9.158;2022-10-03T16:46:53;15.80;99.90
2212;DHT22;48849;48.758;9.158;2022-10-03T16:49:36;15.80;99.90
2212;DHT22;48849;48.758;9.158;2022-10-03T16:52:23;15.70;99.90
2212;DHT22;48849;48.758;9.158;2022-10-03T16:55:00;15.70;99.90
2212;DHT22;48849;48.758;9.158;2022-10-03T16:57:31;15.70;99.90
2212;DHT22;48849;48.758;9.158;2022-10-03T17:00:13;15.80;99.90
2212;DHT22;48849;48.758;9.158;2022-10-03T17:02:40;15.60;99.90
2212;DHT22;48849;48.758;9.158;2022-10-03T17:05:08;15.60;99.90
2212;DHT22;48849;48.758;9.158;2022-10-03T17:07:40;15.60;99.90
2212;DHT22;48849;48.758;9.158;2022-10-03T17:13:10;15.60;99.90
2212;DHT22;48849;48.758;9.158;2022-10-03T17:15:46;15.60;99.90
2212;DHT22;48849;48.758;9.158;2022-10-03T17:18:19;15.60;99.90
2212;DHT22;48849;48.758;9.158;2022-10-03T17:20:48;15.50;99.90
2212;DHT22;48849;48.758;9.158;2022-10-03T17:23:26;15.60;99.90
2212;DHT22;48849;48.758;9.158;2022-10-03T17:26:00;15.50;99.90
2212;DHT22;48849;48.758;9.158;2022-10-03T17:28:47;15.40;99.90
2212;DHT22;48849;48.758;9.158;2022-10-03T17:31:28;15.40;99.90
2212;DHT22;48849;48.758;9.158;2022-10-03T17:34:03;15.40;99.90
2212;DHT22;48849;48.758;9.158;2022-10-03T17:36:55;15.30;99.90
2212;DHT22;48849;48.758;9.158;2022-10-03T17:39:38;15.30;99.90
2212;DHT22;48849;48.758;9.158;2022-10-03T17:42:20;15.20;99.90
2212;DHT22;48849;48.758;9.158;2022-10-03T17:44:56;15.20;99.90
2212;DHT22;48849;48.758;9.158;2022-10-03T17:47:32;15.20;99.90
2212;DHT22;48849;48.758;9.158;2022-10-03T17:50:06;15.20;99.90
2212;DHT22;48849;48.758;9.158;2022-10-03T17:52:39;15.10;99.90
2212;DHT22;48849;48.758;9.158;2022-10-03T17:55:10;15.60;99.90
2212;DHT22;48849;48.758;9.158;2022-10-03T17:57:42;15.30;99.90
2212;DHT22;48849;48.758;9.158;2022-10-03T18:00:17;15.10;99.90
2212;DHT22;48849;48.758;9.158;2022-10-03T18:02:53;15.00;99.90
2212;DHT22;48849;48.758;9.158;2022-10-03T18:05:24;16.00;99.90
2212;DHT22;48849;48.758;9.158;2022-10-03T18:07:53;15.00;99.90
2212;DHT22;48849;48.758;9.158;2022-10-03T18:10:24;14.90;99.90
2212;DHT22;48849;48.758;9.158;2022-10-03T18:12:55;14.90;99.90
2212;DHT22;48849;48.758;9.158;2022-10-03T18:15:44;14.90;99.90
2212;DHT22;48849;48.758;9.158;2022-10-03T18:19:02;14.90;99.90
2212;DHT22;48849;48.758;9.158;2022-10-03T18:21:45;14.80;99.90
2212;DHT22;48849;48.758;9.158;2022-10-03T18:24:35;14.80;99.90
2212;DHT22;48849;48.758;9.158;2022-10-03T18:27:15;14.70;99.90
2212;DHT22;48849;48.758;9.158;2022-10-03T18:29:54;14.70;99.90
2212;DHT22;48849;48.758;9.158;2022-10-03T18:32:22;14.60;99.90
2212;DHT22;48849;48.758;9.158;2022-10-03T18:35:02;14.60;99.90
2212;DHT22;48849;48.758;9.158;2022-10-03T18:37:53;14.50;99.90
2212;DHT22;48849;48.758;9.158;2022-10-03T18:40:24;14.50;99.90
2212;DHT22;48849;48.758;9.158;2022-10-03T18:42:53;14.50;99.90
2212;DHT22;48849;48.758;9.158;2022-10-03T18:45:22;14.50;99.90
2212;DHT22;48849;48.758;9.158;2022-10-03T18:47:53;14.40;99.90
2212;DHT22;48849;48.758;9.158;2022-10-03T18:50:28;14.30;99.90
2212;DHT22;48849;48.758;9.158;2022-10-03T18:53:01;14.30;99.90
2212;DHT22;48849;48.758;9.158;2022-10-03T18:55:35;14.30;99.90
2212;DHT22;48849;48.758;9.158;2022-10-03T18:58:11;14.30;99.90
2212;DHT22;48849;48.758;9.158;2022-10-03T19:00:49;14.20;99.90
2212;DHT22;48849;48.758;9.158;2022-10-03T19:03:20;14.20;99.90
2212;DHT22;48849;48.758;9.158;2022-10-03T19:05:52;14.20;99.90
2212;DHT22;48849;48.758;9.158;2022-10-03T19:08:24;14.20;99.90
2212;DHT22;48849;48.758;9.158;2022-10-03T19:10:53;14.20;99.90
2212;DHT22;48849;48.758;9.158;2022-10-03T19:13:27;14.10;99.90
2212;DHT22;48849;48.758;9.158;2022-10-03T19:16:12;14.10;99.90
2212;DHT22;48849;48.758;9.158;2022-10-03T19:18:43;14.10;99.90
2212;DHT22;48849;48.758;9.158;2022-10-03T19:21:15;14.30;99.90
2212;DHT22;48849;48.758;9.158;2022-10-03T19:23:46;14.10;99.90
2212;DHT22;48849;48.758;9.158;2022-10-03T19:26:20;14.10;99.90
2212;DHT22;48849;48.758;9.158;2022-10-03T19:28:49;14.10;99.90
2212;DHT22;48849;48.758;9.158;2022-10-03T19:31:20;14.10;99.90
2212;DHT22;48849;48.758;9.158;2022-10-03T19:33:49;14.20;99.90
2212;DHT22;48849;48.758;9.158;2022-10-03T19:36:21;14.10;99.90
2212;DHT22;48849;48.758;9.158;2022-10-03T19:38:48;14.10;99.90
2212;DHT22;48849;48.758;9.158;2022-10-03T19:41:24;14.10;99.90
2212;DHT22;48849;48.758;9.158;2022-10-03T19:43:53;14.00;99.90
2212;DHT22;48849;48.758;9.158;2022-10-03T19:46:43;14.90;99.90
2212;DHT22;48849;48.758;9.158;2022-10-03T19:49:24;13.90;99.90
2212;DHT22;48849;48.758;9.158;2022-10-03T19:52:09;13.90;99.90
2212;DHT22;48849;48.758;9.158;2022-10-03T19:54:44;13.90;99.90
2212;DHT22;48849;48.758;9.158;2022-10-03T19:57:15;13.90;99.90
2212;DHT22;48849;48.758;9.158;2022-10-03T19:59:44;13.80;99.90
2212;DHT22;48849;48.758;9.158;2022-10-03T20:02:12;14.50;99.90
2212;DHT22;48849;48.758;9.158;2022-10-03T20:04:41;14.30;99.90
2212;DHT22;48849;48.758;9.158;2022-10-03T20:07:17;13.70;99.90